createdAt,value
2022-08-05T00:01:29.071Z,3.33
2022-08-05T00:03:57.229Z,3.55
2022-08-05T00:06:32.329Z,2.97
2022-08-05T00:09:01.062Z,2.95
2022-08-05T00:11:30.394Z,3.50
2022-08-05T00:14:02.322Z,2.90
2022-08-05T00:16:52.885Z,3.00
2022-08-05T00:19:25.106Z,3.20
2022-08-05T00:21:59.723Z,3.05
2022-08-05T00:24:31.087Z,3.10
2022-08-05T00:27:04.484Z,3.42
2022-08-05T00:29:37.941Z,3.25
2022-08-05T00:32:12.170Z,3.10
2022-08-05T00:35:03.826Z,3.10
2022-08-05T00:37:35.373Z,3.20
2022-08-05T00:40:17.978Z,2.75
2022-08-05T00:43:00.210Z,2.80
2022-08-05T00:45:38.619Z,3.20
2022-08-05T00:48:17.826Z,3.10
2022-08-05T00:50:54.616Z,2.97
2022-08-05T00:53:45.344Z,2.60
2022-08-05T00:56:10.231Z,3.17
2022-08-05T00:58:38.985Z,2.88
2022-08-05T01:01:11.241Z,3.22
2022-08-05T01:03:39.905Z,3.00
2022-08-05T01:06:13.963Z,3.10
2022-08-05T01:08:44.561Z,2.50
2022-08-05T01:11:37.375Z,2.90
2022-08-05T01:14:27.871Z,2.83
2022-08-05T01:17:09.151Z,2.55
2022-08-05T01:19:56.547Z,2.90
2022-08-05T01:23:15.208Z,2.70
2022-08-05T01:26:27.168Z,3.03
2022-08-05T01:29:36.362Z,3.10
2022-08-05T01:32:12.116Z,3.10
2022-08-05T01:34:47.613Z,2.88
2022-08-05T01:37:44.435Z,3.33
2022-08-05T01:40:12.811Z,2.90
2022-08-05T01:42:42.835Z,2.38
2022-08-05T01:45:10.811Z,2.65
2022-08-05T01:47:43.338Z,2.85
2022-08-05T01:50:19.404Z,3.42
2022-08-05T01:53:16.848Z,2.80
2022-08-05T01:56:05.089Z,2.95
2022-08-05T01:58:44.600Z,2.90
2022-08-05T02:01:14.613Z,3.47
2022-08-05T02:03:52.028Z,2.67
2022-08-05T02:06:37.355Z,3.13
2022-08-05T02:09:05.795Z,2.88
2022-08-05T02:11:57.841Z,2.88
2022-08-05T02:14:33.488Z,2.83
2022-08-05T02:18:31.017Z,3.03
2022-08-05T02:20:30.694Z,3.13
2022-08-05T02:23:10.904Z,2.60
2022-08-05T02:25:50.205Z,2.60
2022-08-05T02:28:28.989Z,3.17
2022-08-05T02:31:21.618Z,2.58
2022-08-05T02:33:58.267Z,3.08
2022-08-05T02:36:31.379Z,3.03
2022-08-05T02:39:01.665Z,2.72
2022-08-05T02:41:37.546Z,3.00
2022-08-05T02:44:19.563Z,3.00
2022-08-05T02:46:58.765Z,2.90
2022-08-05T02:49:37.770Z,2.80
2022-08-05T02:52:30.250Z,3.28
2022-08-05T02:55:05.558Z,3.10
2022-08-05T02:58:09.161Z,2.88
2022-08-05T03:00:28.994Z,2.80
2022-08-05T03:02:58.473Z,2.80
2022-08-05T03:06:55.567Z,3.30
2022-08-05T03:08:13.474Z,2.90
2022-08-05T03:11:01.101Z,2.83
2022-08-05T03:13:51.510Z,2.97
2022-08-05T03:16:19.173Z,2.95
2022-08-05T03:18:46.686Z,2.72
2022-08-05T03:21:15.648Z,2.50
2022-08-05T03:23:45.541Z,3.00
2022-08-05T03:26:31.342Z,2.95
2022-08-05T03:29:05.318Z,2.65
2022-08-05T03:31:56.854Z,2.72
2022-08-05T03:34:25.466Z,3.00
2022-08-05T03:36:54.009Z,2.95
2022-08-05T03:39:27.106Z,2.97
2022-08-05T03:41:56.300Z,3.08
2022-08-05T03:44:24.561Z,2.88
2022-08-05T03:46:51.874Z,2.90
2022-08-05T03:49:18.646Z,3.00
2022-08-05T03:52:37.936Z,3.15
2022-08-05T03:56:04.181Z,3.22
2022-08-05T03:57:58.860Z,2.92
2022-08-05T04:00:31.341Z,2.97
2022-08-05T04:03:05.230Z,3.08
2022-08-05T04:05:35.641Z,2.75
2022-08-05T04:08:14.472Z,2.97
2022-08-05T04:10:45.225Z,2.90
2022-08-05T04:13:12.053Z,3.15
2022-08-05T04:15:39.415Z,2.70
2022-08-05T04:18:26.862Z,3.08
2022-08-05T04:20:55.899Z,2.90
2022-08-05T04:24:05.164Z,2.50
2022-08-05T04:26:17.486Z,3.30
2022-08-05T04:28:51.342Z,2.70
2022-08-05T04:31:20.111Z,3.00
2022-08-05T04:34:17.929Z,4.18
2022-08-05T04:36:45.674Z,9.95
2022-08-05T04:39:13.722Z,12.60
2022-08-05T04:41:41.155Z,13.52
2022-08-05T04:44:09.324Z,12.23
2022-08-05T04:46:38.357Z,9.55
2022-08-05T04:49:12.112Z,9.32
2022-08-05T04:51:42.712Z,8.35
2022-08-05T04:54:10.607Z,6.50
2022-08-05T04:56:40.048Z,6.72
2022-08-05T04:59:21.437Z,6.53
2022-08-05T05:02:35.306Z,5.80
2022-08-05T05:04:47.743Z,5.13
2022-08-05T05:07:17.627Z,5.25
2022-08-05T05:09:45.638Z,6.03
2022-08-05T05:12:12.405Z,5.47
2022-08-05T05:14:49.495Z,5.40
2022-08-05T05:17:23.392Z,6.18
2022-08-05T05:19:55.080Z,5.80
2022-08-05T05:22:26.318Z,5.38
2022-08-05T05:25:00.114Z,5.40
2022-08-05T05:27:45.912Z,5.80
2022-08-05T05:30:29.113Z,5.63
2022-08-05T05:33:00.907Z,6.45
2022-08-05T05:35:38.053Z,5.88
2022-08-05T05:38:09.063Z,5.78
2022-08-05T05:40:43.816Z,6.47
2022-08-05T05:43:27.497Z,6.55
2022-08-05T05:46:05.269Z,7.63
2022-08-05T05:48:34.641Z,7.55
2022-08-05T05:51:13.071Z,7.65
2022-08-05T05:53:54.559Z,8.25
2022-08-05T05:56:34.575Z,7.90
2022-08-05T05:59:08.292Z,7.55
2022-08-05T06:01:39.562Z,7.15
2022-08-05T06:04:12.745Z,7.60
2022-08-05T06:06:47.432Z,7.82
2022-08-05T06:09:24.831Z,7.03
2022-08-05T06:11:59.177Z,8.35
2022-08-05T06:14:29.043Z,8.07
2022-08-05T06:16:56.982Z,8.27
2022-08-05T06:19:26.040Z,7.90
2022-08-05T06:22:01.033Z,8.35
2022-08-05T06:24:27.687Z,7.80
2022-08-05T06:26:55.080Z,8.15
2022-08-05T06:29:43.193Z,7.35
2022-08-05T06:32:25.214Z,8.00
2022-08-05T06:34:56.118Z,8.40
2022-08-05T06:37:56.546Z,7.75
2022-08-05T06:40:18.204Z,7.88
2022-08-05T06:42:52.049Z,8.05
2022-08-05T06:45:44.634Z,7.55
2022-08-05T06:48:37.162Z,7.38
2022-08-05T06:50:55.226Z,9.43
2022-08-05T06:53:27.848Z,8.70
2022-08-05T06:55:59.608Z,8.20
2022-08-05T06:58:35.288Z,7.22
2022-08-05T07:01:06.480Z,7.35
2022-08-05T07:03:34.571Z,7.22
2022-08-05T07:06:10.384Z,7.93
2022-08-05T07:08:47.598Z,7.53
2022-08-05T07:11:22.442Z,9.07
2022-08-05T07:14:20.657Z,9.27
2022-08-05T07:17:58.677Z,7.20
2022-08-05T07:22:42.150Z,7.55
2022-08-05T07:25:23.776Z,7.25
2022-08-05T07:28:00.816Z,7.35
2022-08-05T07:30:40.159Z,7.95
2022-08-05T07:33:16.403Z,8.30
2022-08-05T07:36:04.908Z,8.30
2022-08-05T07:38:34.962Z,8.85
2022-08-05T07:42:12.920Z,8.52
2022-08-05T07:44:18.536Z,9.15
2022-08-05T07:46:48.516Z,9.70
2022-08-05T07:49:18.136Z,9.65
2022-08-05T07:51:53.320Z,9.95
2022-08-05T07:54:31.355Z,9.40
2022-08-05T07:57:17.575Z,8.60
2022-08-05T07:59:51.852Z,9.82
2022-08-05T08:02:26.756Z,9.07
2022-08-05T08:04:58.982Z,9.02
2022-08-05T08:07:28.457Z,9.43
2022-08-05T08:09:55.577Z,8.80
2022-08-05T08:12:34.993Z,8.32
2022-08-05T08:15:15.757Z,9.00
2022-08-05T08:17:46.133Z,8.73
2022-08-05T08:20:43.664Z,8.35
2022-08-05T08:23:04.544Z,8.13
2022-08-05T08:26:00.854Z,8.95
2022-08-05T08:28:36.275Z,9.00
2022-08-05T08:31:07.222Z,9.20
2022-08-05T08:33:37.530Z,8.65
2022-08-05T08:38:57.920Z,9.85
2022-08-05T08:41:51.915Z,9.73
2022-08-05T08:45:16.892Z,10.50
2022-08-05T08:47:47.453Z,9.50
2022-08-05T08:50:14.721Z,9.20
2022-08-05T08:52:57.861Z,9.88
2022-08-05T08:55:32.030Z,9.68
2022-08-05T08:58:14.999Z,8.18
2022-08-05T09:00:44.934Z,8.13
2022-08-05T09:03:15.983Z,8.20
2022-08-05T09:06:08.809Z,9.18
2022-08-05T09:08:34.065Z,9.82
2022-08-05T09:11:00.866Z,9.93
2022-08-05T09:13:31.679Z,9.05
2022-08-05T09:15:59.532Z,10.07
2022-08-05T09:18:26.537Z,10.07
2022-08-05T09:20:53.276Z,9.48
2022-08-05T09:23:21.798Z,9.80
2022-08-05T09:26:06.312Z,9.48
2022-08-05T09:28:35.137Z,9.93
2022-08-05T09:31:23.011Z,11.05
2022-08-05T09:34:07.575Z,10.85
2022-08-05T09:42:28.038Z,12.07
2022-08-05T09:45:03.261Z,12.35
2022-08-05T09:47:54.966Z,11.77
2022-08-05T09:50:37.520Z,11.70
2022-08-05T09:53:05.767Z,11.73
2022-08-05T09:55:56.141Z,10.00
2022-08-05T09:58:24.454Z,10.70
2022-08-05T10:48:40.646Z,5.05
2022-08-05T10:51:23.113Z,5.00
2022-08-05T10:54:01.625Z,4.38
2022-08-05T10:56:46.487Z,4.85
2022-08-05T11:00:03.581Z,5.72
2022-08-05T11:02:38.069Z,4.90
2022-08-05T11:05:07.084Z,4.85
2022-08-05T11:08:03.289Z,3.92
2022-08-05T11:10:27.792Z,3.42
2022-08-05T11:12:57.766Z,3.50
2022-08-05T11:15:59.378Z,3.55
2022-08-05T11:18:29.833Z,3.63
2022-08-05T11:20:59.862Z,3.92
2022-08-05T11:23:56.900Z,4.22
2022-08-05T11:26:17.182Z,4.40
2022-08-05T11:28:56.683Z,4.63
2022-08-05T11:31:53.827Z,4.28
2022-08-05T11:34:51.103Z,4.05
2022-08-05T11:38:29.635Z,3.85
2022-08-05T11:41:58.091Z,3.17
2022-08-05T11:44:21.565Z,3.10
2022-08-05T11:47:10.440Z,2.85
2022-08-05T11:49:42.929Z,3.42
2022-08-05T11:52:11.704Z,3.50
2022-08-05T11:54:40.669Z,3.60
2022-08-05T11:57:24.294Z,3.60
2022-08-05T11:59:52.691Z,3.78
2022-08-05T12:02:31.603Z,3.92
2022-08-05T12:05:07.843Z,3.45
2022-08-05T12:08:09.138Z,4.15
2022-08-05T12:10:42.925Z,3.88
2022-08-05T12:13:17.485Z,3.80
2022-08-05T12:15:55.868Z,3.50
2022-08-05T12:18:38.668Z,3.58
2022-08-05T12:21:12.721Z,3.58
2022-08-05T12:23:43.135Z,3.63
2022-08-05T12:26:10.213Z,3.42
2022-08-05T12:28:38.166Z,3.20
2022-08-05T12:31:05.780Z,3.50
2022-08-05T12:33:36.672Z,2.83
2022-08-05T12:36:08.459Z,3.92
2022-08-05T12:38:41.153Z,3.13
2022-08-05T12:41:16.343Z,2.83
2022-08-05T12:43:56.249Z,3.33
2022-08-05T12:46:29.265Z,3.60
2022-08-05T12:49:12.895Z,3.78
2022-08-05T12:52:13.480Z,3.33
2022-08-05T12:54:35.866Z,3.53
2022-08-05T12:57:09.414Z,3.05
2022-08-05T13:01:58.099Z,3.35
2022-08-05T13:02:36.042Z,3.28
2022-08-05T13:05:06.762Z,3.40
2022-08-05T13:07:57.368Z,4.00
2022-08-05T13:10:20.675Z,3.42
2022-08-05T13:12:57.220Z,3.92
2022-08-05T13:15:41.632Z,3.63
2022-08-05T13:18:20.198Z,3.42
2022-08-05T13:20:50.115Z,3.20
2022-08-05T13:23:22.623Z,3.78
2022-08-05T13:25:59.435Z,3.28
2022-08-05T13:28:28.558Z,3.75
2022-08-05T13:30:55.564Z,3.00
2022-08-05T13:34:23.188Z,2.83
2022-08-05T13:36:14.350Z,2.90
2022-08-05T13:38:42.668Z,3.20
2022-08-05T13:41:11.671Z,2.88
2022-08-05T13:43:44.247Z,2.83
2022-08-05T13:46:44.308Z,2.22
2022-08-05T13:49:10.206Z,3.08
2022-08-05T13:51:45.846Z,3.15
2022-08-05T13:54:16.060Z,2.95
2022-08-05T13:56:51.582Z,3.53
2022-08-05T13:59:27.390Z,3.28
2022-08-05T14:02:00.525Z,3.38
2022-08-05T14:04:50.139Z,3.45
2022-08-05T14:07:59.634Z,3.42
2022-08-05T14:10:30.629Z,3.35
2022-08-05T14:12:58.858Z,2.80
2022-08-05T14:16:08.774Z,3.17
2022-08-05T14:18:18.523Z,3.22
2022-08-05T14:20:54.296Z,3.10
2022-08-05T14:23:25.507Z,3.40
2022-08-05T14:25:58.425Z,3.95
2022-08-05T14:28:30.438Z,4.20
2022-08-05T14:30:59.428Z,5.47
2022-08-05T14:33:27.822Z,5.80
2022-08-05T14:36:14.541Z,5.80
2022-08-05T14:38:41.855Z,5.32
2022-08-05T14:41:08.581Z,5.78
2022-08-05T14:44:00.194Z,6.03
2022-08-05T14:46:28.838Z,5.20
2022-08-05T14:49:06.532Z,4.90
2022-08-05T14:51:37.663Z,5.13
2022-08-05T14:54:28.817Z,4.60
2022-08-05T14:56:54.723Z,4.72
2022-08-05T14:59:21.888Z,4.40
2022-08-05T15:01:49.970Z,4.20
2022-08-05T15:04:22.457Z,4.38
2022-08-05T15:06:51.194Z,4.07
2022-08-05T15:09:51.618Z,3.53
2022-08-05T15:12:08.867Z,4.28
2022-08-05T15:14:48.164Z,4.78
2022-08-05T15:17:47.781Z,4.13
2022-08-05T15:20:18.422Z,6.05
2022-08-05T15:22:52.316Z,4.55
2022-08-05T15:25:41.315Z,3.65
2022-08-05T15:28:14.566Z,3.60
2022-08-05T15:30:43.794Z,2.90
2022-08-05T15:33:13.256Z,3.28
2022-08-05T15:35:59.961Z,3.08
2022-08-05T15:38:33.731Z,2.15
2022-08-05T15:41:23.210Z,2.55
2022-08-05T15:43:50.187Z,1.92
2022-08-05T15:46:18.922Z,2.08
2022-08-05T15:48:52.470Z,1.95
2022-08-05T15:52:09.871Z,1.50
2022-08-05T15:54:15.186Z,1.98
2022-08-05T15:56:42.548Z,1.67
2022-08-05T15:59:22.019Z,1.13
2022-08-05T16:01:52.427Z,1.45
2022-08-05T16:04:25.747Z,1.40
2022-08-05T16:06:55.989Z,1.77
2022-08-05T16:09:24.666Z,1.52
2022-08-05T16:11:53.190Z,1.38
2022-08-05T16:14:21.711Z,0.82
2022-08-05T16:16:49.687Z,1.35
2022-08-05T16:19:25.458Z,1.20
2022-08-05T16:22:04.621Z,1.52
2022-08-05T16:24:40.994Z,1.35
2022-08-05T16:27:09.457Z,2.17
2022-08-05T16:29:37.299Z,1.70
2022-08-05T16:32:09.709Z,2.53
2022-08-05T16:34:37.330Z,2.00
2022-08-05T16:38:02.364Z,2.60
2022-08-05T16:40:05.611Z,2.60
2022-08-05T16:42:35.383Z,3.10
2022-08-05T16:46:05.135Z,3.03
2022-08-05T16:47:54.113Z,3.42
2022-08-05T16:50:24.216Z,2.90
2022-08-05T16:52:50.922Z,2.67
2022-08-05T16:55:19.833Z,2.85
2022-08-05T16:57:53.077Z,3.00
2022-08-05T17:00:26.066Z,2.28
2022-08-05T17:03:03.792Z,2.22
2022-08-05T17:05:37.114Z,1.98
2022-08-05T17:08:04.813Z,2.47
2022-08-05T17:10:31.557Z,1.02
2022-08-05T17:12:58.439Z,1.27
2022-08-05T17:15:29.395Z,1.40
2022-08-05T17:18:14.237Z,1.45
2022-08-05T17:20:42.579Z,1.10
2022-08-05T17:23:11.020Z,1.40
2022-08-05T17:25:57.884Z,1.02
2022-08-05T17:28:24.821Z,1.40
2022-08-05T17:30:55.721Z,1.50
2022-08-05T17:33:23.141Z,1.40
2022-08-05T17:36:07.486Z,1.40
2022-08-05T17:38:36.814Z,1.23
2022-08-05T17:41:03.645Z,1.83
2022-08-05T17:43:47.098Z,0.98
2022-08-05T17:46:18.327Z,1.10
2022-08-05T17:48:45.152Z,1.00
2022-08-05T17:51:21.360Z,0.85
2022-08-05T17:53:50.805Z,1.02
2022-08-05T17:56:21.709Z,1.33
2022-08-05T17:58:49.744Z,1.02
2022-08-05T18:01:18.492Z,1.17
2022-08-05T18:03:59.800Z,1.10
2022-08-05T18:06:31.429Z,1.40
2022-08-05T18:08:59.246Z,1.00
2022-08-05T18:11:32.581Z,0.90
2022-08-05T18:14:07.350Z,1.08
2022-08-05T18:16:51.293Z,1.20
2022-08-05T18:19:22.767Z,1.08
2022-08-05T18:22:08.611Z,1.02
2022-08-05T18:24:37.910Z,1.02
2022-08-05T18:27:18.236Z,1.00
2022-08-05T18:29:51.913Z,0.90
2022-08-05T18:32:21.704Z,1.08
2022-08-05T18:34:55.536Z,0.90
2022-08-05T18:37:34.639Z,0.80
2022-08-05T18:40:33.699Z,1.00
2022-08-05T18:42:56.834Z,1.08
2022-08-05T18:45:23.833Z,0.90
2022-08-05T18:47:56.436Z,1.38
2022-08-05T18:50:46.898Z,1.00
2022-08-05T18:53:20.795Z,0.98
2022-08-05T18:55:51.416Z,1.50
2022-08-05T18:58:18.670Z,0.85
2022-08-05T19:00:54.244Z,0.90
2022-08-05T19:03:53.135Z,1.10
2022-08-05T19:06:19.197Z,1.13
2022-08-05T19:08:49.234Z,1.33
2022-08-05T19:11:15.967Z,1.73
2022-08-05T19:14:00.656Z,1.15
2022-08-05T19:16:33.056Z,1.08
2022-08-05T19:19:13.895Z,1.20
2022-08-05T19:21:40.691Z,1.00
2022-08-05T19:24:12.492Z,1.05
2022-08-05T19:26:43.809Z,0.90
2022-08-05T19:29:23.096Z,0.98
2022-08-05T19:31:51.228Z,1.35
2022-08-05T19:34:18.677Z,1.30
2022-08-05T19:36:45.620Z,1.10
2022-08-05T19:39:14.131Z,1.40
2022-08-05T19:42:06.977Z,1.40
2022-08-05T19:44:30.800Z,1.33
2022-08-05T19:46:57.483Z,1.23
2022-08-05T19:49:24.554Z,1.45
2022-08-05T19:52:13.080Z,1.60
2022-08-05T19:54:37.970Z,1.27
2022-08-05T19:57:09.426Z,1.63
2022-08-05T19:59:59.520Z,1.73
2022-08-05T20:02:27.120Z,1.55
2022-08-05T20:04:58.510Z,1.60
2022-08-05T20:07:46.346Z,1.50
2022-08-05T20:10:17.250Z,1.20
2022-08-05T20:12:49.514Z,1.52
2022-08-05T20:15:48.288Z,1.60
2022-08-05T20:18:10.354Z,1.20
2022-08-05T20:20:55.942Z,1.30
2022-08-05T20:23:39.453Z,1.42
2022-08-05T20:26:15.395Z,1.20
2022-08-05T20:28:48.673Z,1.50
2022-08-05T20:31:21.468Z,1.30
2022-08-05T20:33:50.194Z,1.38
2022-08-05T20:36:18.260Z,1.75
2022-08-05T20:38:54.441Z,1.27
2022-08-05T20:41:27.116Z,1.40
2022-08-05T20:44:17.686Z,1.10
2022-08-05T20:46:47.934Z,1.50
2022-08-05T20:49:15.051Z,2.03
2022-08-05T20:51:53.362Z,1.30
2022-08-05T20:54:20.800Z,1.48
2022-08-05T20:56:47.683Z,1.27
2022-08-05T20:59:26.320Z,1.52
2022-08-05T21:01:57.133Z,1.60
2022-08-05T21:04:27.076Z,1.33
2022-08-05T21:06:54.772Z,1.48
2022-08-05T21:09:22.689Z,1.50
2022-08-05T21:12:09.702Z,1.52
2022-08-05T21:14:39.552Z,1.25
2022-08-05T21:17:06.558Z,1.35
2022-08-05T21:19:47.208Z,1.70
2022-08-05T21:22:17.608Z,1.90
2022-08-05T21:24:48.957Z,1.80
2022-08-05T21:27:24.930Z,1.80
2022-08-05T21:29:54.187Z,2.08
2022-08-05T21:32:27.747Z,1.83
2022-08-05T21:35:16.708Z,1.75
2022-08-05T21:37:47.388Z,1.80
2022-08-05T21:40:24.163Z,1.90
2022-08-05T21:42:54.341Z,2.30
2022-08-05T21:45:56.327Z,2.22
2022-08-05T21:48:13.579Z,1.77
2022-08-05T21:50:42.101Z,2.50
2022-08-05T21:53:19.933Z,1.90
2022-08-05T21:56:04.203Z,1.80
2022-08-05T21:58:33.235Z,2.10
2022-08-05T22:01:00.662Z,1.95
2022-08-05T22:03:48.199Z,1.90
2022-08-05T22:06:23.075Z,2.00
2022-08-05T22:09:01.929Z,1.60
2022-08-05T22:11:40.824Z,1.77
2022-08-05T22:14:32.786Z,1.88
2022-08-05T22:16:57.004Z,2.05
2022-08-05T22:20:02.181Z,1.75
2022-08-05T22:22:12.585Z,1.80
2022-08-05T22:25:01.181Z,2.00
2022-08-05T22:28:09.415Z,1.40
2022-08-05T22:30:35.088Z,1.02
2022-08-05T22:33:15.741Z,0.70
2022-08-05T22:35:48.977Z,0.77
2022-08-05T22:38:17.181Z,0.82
2022-08-05T22:40:49.764Z,0.60
2022-08-05T22:43:37.138Z,0.90
2022-08-05T22:46:13.090Z,0.70
2022-08-05T22:48:47.790Z,0.73
2022-08-05T22:51:16.091Z,0.98
2022-08-05T22:53:51.074Z,0.60
2022-08-05T22:56:30.484Z,0.55
2022-08-05T22:59:03.914Z,0.60
2022-08-05T23:02:04.471Z,0.57
2022-08-05T23:04:33.824Z,0.65
2022-08-05T23:07:00.743Z,0.73
2022-08-05T23:09:57.855Z,0.50
2022-08-05T23:12:16.242Z,0.38
2022-08-05T23:14:43.735Z,0.52
2022-08-05T23:17:32.685Z,0.35
2022-08-05T23:20:10.494Z,0.40
2022-08-05T23:22:47.249Z,0.32
2022-08-05T23:25:17.360Z,0.40
2022-08-05T23:28:07.161Z,0.50
2022-08-05T23:30:40.663Z,0.73
2022-08-05T23:33:16.134Z,0.40
2022-08-05T23:35:50.752Z,0.90
2022-08-05T23:38:18.296Z,0.43
2022-08-05T23:40:49.801Z,0.43
2022-08-05T23:43:25.685Z,0.43
2022-08-05T23:46:20.048Z,0.40
2022-08-05T23:49:00.769Z,0.60
2022-08-05T23:51:55.253Z,0.43
2022-08-05T23:54:30.263Z,0.50
2022-08-05T23:57:04.069Z,0.70
